Time;durP1;ratioP1;P1;durP2;ratioP2;P2;SDS_P1;SDS_P2;PMS_P1;PMS_P2;Temp;Humidity;BMP_temperature;BMP_pressure;BME280_temperature;BME280_humidity;BME280_pressure;Samples;Min_cycle;Max_cycle;Signal;HPM_P1;HPM_P2
2023/08/04 00:01:40;;;;;;;7.70;2.53;;;17.60;99.90;;;;;;5042954;28;20459;-89
2023/08/04 00:04:07;;;;;;;6.07;2.30;;;17.60;99.90;;;;;;5058587;28;20045;-88
2023/08/04 00:09:23;;;;;;;6.63;2.60;;;17.50;99.90;;;;;;5058091;28;20095;-88
2023/08/04 00:11:50;;;;;;;6.80;2.42;;;17.50;99.90;;;;;;5056762;28;20048;-88
2023/08/04 00:14:17;;;;;;;8.50;2.42;;;17.50;99.90;;;;;;5058266;28;20464;-88
2023/08/04 00:19:30;;;;;;;8.25;2.78;;;17.40;99.90;;;;;;5063134;28;20168;-88
2023/08/04 00:21:57;;;;;;;5.97;2.40;;;17.40;99.90;;;;;;5057543;28;20052;-88
2023/08/04 00:24:24;;;;;;;10.65;2.42;;;17.40;99.90;;;;;;5057411;28;20356;-88
2023/08/04 00:26:51;;;;;;;7.30;2.75;;;17.40;99.90;;;;;;5040102;28;20056;-87
2023/08/04 00:29:18;;;;;;;7.50;2.58;;;17.40;99.90;;;;;;5057866;28;20433;-88
2023/08/04 00:31:45;;;;;;;9.10;2.58;;;17.40;99.90;;;;;;5041082;28;20399;-88
2023/08/04 00:34:12;;;;;;;6.15;2.40;;;17.40;99.90;;;;;;5040407;28;20059;-88
2023/08/04 00:36:42;;;;;;;7.22;2.47;;;17.40;99.90;;;;;;5057634;28;20044;-89
2023/08/04 00:39:09;;;;;;;8.18;2.75;;;17.40;99.90;;;;;;5056673;28;20463;-88
2023/08/04 00:41:36;;;;;;;10.23;3.08;;;17.40;99.90;;;;;;5040905;28;20106;-88
2023/08/04 00:44:03;;;;;;;7.00;2.60;;;17.40;99.90;;;;;;5068365;28;20040;-89
2023/08/04 00:49:34;;;;;;;8.15;2.55;;;17.40;99.90;;;;;;5074735;28;20066;-88
2023/08/04 00:52:01;;;;;;;7.03;2.50;;;17.30;99.90;;;;;;5074211;28;20037;-88
2023/08/04 00:54:28;;;;;;;6.72;2.58;;;17.30;99.90;;;;;;5072288;28;20072;-87
2023/08/04 00:59:41;;;;;;;5.50;2.35;;;17.40;99.90;;;;;;5056229;28;20043;-86
2023/08/04 01:02:08;;;;;;;8.20;2.70;;;17.30;99.90;;;;;;5040791;28;20083;-88
2023/08/04 01:04:35;;;;;;;8.88;2.75;;;17.30;99.90;;;;;;5041196;28;20376;-88
2023/08/04 01:09:51;;;;;;;11.90;2.70;;;17.30;99.90;;;;;;5057301;28;20049;-89
2023/08/04 01:12:18;;;;;;;6.25;2.53;;;17.30;99.90;;;;;;5039950;28;20064;-87
2023/08/04 01:14:45;;;;;;;7.85;2.40;;;17.20;99.90;;;;;;5056951;28;20046;-88
2023/08/04 01:20:16;;;;;;;7.38;2.45;;;17.10;99.90;;;;;;5055314;28;20101;-89
2023/08/04 01:22:45;;;;;;;8.27;2.55;;;17.10;99.90;;;;;;5061306;28;20044;-88
2023/08/04 01:25:12;;;;;;;11.40;2.95;;;17.10;99.90;;;;;;5060845;28;20049;-87
2023/08/04 01:27:42;;;;;;;6.65;2.67;;;17.00;99.90;;;;;;5060125;28;20055;-88
2023/08/04 01:30:08;;;;;;;12.27;2.83;;;16.90;99.90;;;;;;5061206;28;20045;-88
2023/08/04 01:32:35;;;;;;;8.48;3.05;;;16.90;99.90;;;;;;5059919;28;20347;-87
2023/08/04 01:35:02;;;;;;;7.65;2.67;;;16.90;99.90;;;;;;5060996;28;20076;-87
2023/08/04 01:40:17;;;;;;;7.22;2.90;;;16.90;99.90;;;;;;5060276;28;20063;-86
2023/08/04 01:42:44;;;;;;;8.98;2.55;;;16.90;99.90;;;;;;5060663;28;20089;-86
2023/08/04 01:45:11;;;;;;;10.25;2.65;;;16.80;99.90;;;;;;5060342;28;20075;-87
2023/08/04 01:47:40;;;;;;;9.27;2.88;;;16.80;99.90;;;;;;5059593;28;20058;-87
2023/08/04 01:50:07;;;;;;;8.82;3.05;;;16.80;99.90;;;;;;5040514;28;20049;-88
2023/08/04 01:52:34;;;;;;;9.57;2.72;;;16.80;99.90;;;;;;5059642;28;20383;-88
2023/08/04 01:55:01;;;;;;;8.15;2.90;;;16.80;99.90;;;;;;5060591;28;20135;-86
2023/08/04 02:00:18;;;;;;;8.45;2.70;;;16.80;99.90;;;;;;5047978;28;20055;-87
2023/08/04 02:02:45;;;;;;;9.82;2.85;;;16.70;99.90;;;;;;5077622;28;20048;-87
2023/08/04 02:05:13;;;;;;;9.95;2.88;;;16.70;99.90;;;;;;5038786;28;20106;-87
2023/08/04 02:10:45;;;;;;;9.52;2.97;;;16.70;99.90;;;;;;5051296;28;20101;-87
2023/08/04 02:13:12;;;;;;;10.05;3.33;;;16.70;99.90;;;;;;5042529;28;20056;-88
2023/08/04 02:15:39;;;;;;;8.35;2.65;;;16.70;99.90;;;;;;5059928;28;20459;-87
2023/08/04 02:18:05;;;;;;;6.78;2.50;;;16.70;99.90;;;;;;5077393;28;20129;-87
2023/08/04 02:20:34;;;;;;;7.25;2.58;;;16.70;99.90;;;;;;5043041;28;20121;-87
2023/08/04 02:23:01;;;;;;;8.98;2.30;;;16.70;99.90;;;;;;5059426;28;20040;-88
2023/08/04 02:25:28;;;;;;;6.57;2.65;;;16.70;99.90;;;;;;5057539;28;20048;-87
2023/08/04 02:30:42;;;;;;;7.05;2.80;;;16.70;99.90;;;;;;5058939;28;20114;-87
2023/08/04 02:33:09;;;;;;;11.40;3.13;;;16.70;99.90;;;;;;5058677;28;20071;-86
2023/08/04 02:35:35;;;;;;;7.72;2.50;;;16.60;99.90;;;;;;5059660;28;20056;-87
2023/08/04 02:41:07;;;;;;;8.63;2.58;;;16.60;99.90;;;;;;5059643;28;20029;-86
2023/08/04 02:43:33;;;;;;;10.15;2.70;;;16.70;99.90;;;;;;5042806;28;20049;-88
2023/08/04 02:48:48;;;;;;;11.27;2.72;;;16.60;99.90;;;;;;5076826;28;20463;-88
2023/08/04 02:51:15;;;;;;;11.13;2.80;;;16.60;99.90;;;;;;5039564;28;20036;-87
2023/08/04 02:53:43;;;;;;;6.80;2.60;;;16.70;99.90;;;;;;5045305;28;20132;-88
2023/08/04 02:58:58;;;;;;;8.18;3.35;;;16.70;99.90;;;;;;5050593;28;20048;-88
2023/08/04 03:01:25;;;;;;;6.03;2.50;;;16.60;99.90;;;;;;5044523;28;20037;-88
2023/08/04 03:03:54;;;;;;;9.27;2.88;;;16.60;99.90;;;;;;5038886;28;20119;-88
2023/08/04 03:09:26;;;;;;;6.45;2.58;;;16.70;99.90;;;;;;5058819;28;20025;-88
2023/08/04 03:11:52;;;;;;;9.35;3.00;;;16.70;99.90;;;;;;5056659;28;20046;-88
2023/08/04 03:14:19;;;;;;;11.55;2.92;;;16.70;99.90;;;;;;5063205;28;20056;-88
2023/08/04 03:19:33;;;;;;;7.60;2.30;;;16.60;99.90;;;;;;5068796;28;20053;-87
2023/08/04 03:22:00;;;;;;;7.05;2.65;;;16.50;99.90;;;;;;5058627;28;20052;-89
2023/08/04 03:24:27;;;;;;;7.47;2.55;;;16.50;99.90;;;;;;5058618;28;20040;-87
2023/08/04 03:29:59;;;;;;;6.57;2.53;;;16.50;99.90;;;;;;5067252;28;20028;-87
2023/08/04 03:32:26;;;;;;;9.38;2.67;;;16.50;99.90;;;;;;5074806;28;20051;-88
2023/08/04 03:34:53;;;;;;;8.60;2.90;;;16.50;99.90;;;;;;5041984;28;20482;-87
2023/08/04 03:40:06;;;;;;;7.90;2.67;;;16.50;99.90;;;;;;5068172;28;20048;-87
2023/08/04 03:42:33;;;;;;;7.72;2.30;;;16.50;99.90;;;;;;5039385;28;20045;-87
2023/08/04 03:45:03;;;;;;;8.32;2.50;;;16.50;99.90;;;;;;5057820;28;20052;-88
2023/08/04 03:50:34;;;;;;;6.28;2.50;;;16.40;99.90;;;;;;5058545;28;20075;-87
2023/08/04 03:53:01;;;;;;;9.15;2.97;;;16.30;99.90;;;;;;5057490;28;20082;-87
2023/08/04 03:55:27;;;;;;;6.30;2.38;;;16.30;99.90;;;;;;5041645;28;20045;-87
2023/08/04 04:00:41;;;;;;;6.25;3.00;;;16.30;99.90;;;;;;5053744;28;20049;-87
2023/08/04 04:03:08;;;;;;;7.50;2.65;;;16.20;99.90;;;;;;5055614;28;20040;-88
2023/08/04 04:05:35;;;;;;;10.43;3.17;;;16.20;99.90;;;;;;5046756;28;20387;-86
2023/08/04 04:10:51;;;;;;;8.02;2.55;;;16.10;99.90;;;;;;5057631;28;20048;-87
2023/08/04 04:13:17;;;;;;;7.78;2.78;;;16.10;99.90;;;;;;5073600;28;20048;-87
2023/08/04 04:18:31;;;;;;;6.55;2.92;;;16.10;99.90;;;;;;5057769;28;20418;-88
2023/08/04 04:20:58;;;;;;;7.38;2.80;;;16.00;99.90;;;;;;5057080;28;20044;-88
2023/08/04 04:23:25;;;;;;;7.95;2.50;;;15.90;99.90;;;;;;5054094;28;20049;-87
2023/08/04 04:28:42;;;;;;;7.20;2.70;;;15.90;99.90;;;;;;5057085;28;20163;-87
2023/08/04 04:31:09;;;;;;;7.93;2.92;;;15.90;99.90;;;;;;5057485;28;20064;-87
2023/08/04 04:33:36;;;;;;;8.30;2.83;;;15.90;99.90;;;;;;5039833;28;20052;-88
2023/08/04 04:39:08;;;;;;;6.65;2.65;;;15.90;99.90;;;;;;5074036;28;20462;-87
2023/08/04 04:41:35;;;;;;;9.88;3.00;;;15.80;99.90;;;;;;5056907;28;20503;-87
2023/08/04 04:44:02;;;;;;;11.20;3.33;;;15.90;99.90;;;;;;5040640;28;20049;-87
2023/08/04 04:46:30;;;;;;;13.77;3.20;;;15.90;99.90;;;;;;5056492;28;20463;-87
2023/08/04 04:48:57;;;;;;;9.25;2.90;;;15.90;99.90;;;;;;5057463;28;20457;-87
2023/08/04 04:51:24;;;;;;;7.95;2.90;;;15.90;99.90;;;;;;5051961;28;20037;-88
2023/08/04 04:53:50;;;;;;;8.20;2.80;;;15.90;99.90;;;;;;5066828;28;20459;-87
2023/08/04 05:02:33;;;;;;;11.00;3.03;;;15.90;99.90;;;;;;5060887;28;20501;-87
2023/08/04 05:05:00;;;;;;;8.13;2.80;;;15.90;99.90;;;;;;5062255;28;20036;-87
2023/08/04 05:07:28;;;;;;;10.35;2.97;;;15.90;99.90;;;;;;5051880;28;20032;-87
2023/08/04 05:09:55;;;;;;;9.15;3.50;;;15.90;99.90;;;;;;5060912;28;20033;-87
2023/08/04 05:12:22;;;;;;;9.50;3.35;;;15.90;99.90;;;;;;5037791;28;20072;-87
2023/08/04 05:14:49;;;;;;;12.30;3.08;;;15.80;99.90;;;;;;5049755;28;20055;-88
2023/08/04 05:20:04;;;;;;;13.45;3.75;;;15.90;99.90;;;;;;5077728;28;20045;-88
2023/08/04 05:22:31;;;;;;;8.02;3.00;;;15.90;99.90;;;;;;5061032;28;20139;-88
2023/08/04 05:24:58;;;;;;;11.02;3.38;;;15.90;99.90;;;;;;5060691;28;20041;-87
2023/08/04 05:30:26;;;;;;;9.80;3.30;;;15.90;99.90;;;;;;5078242;28;20048;-88
2023/08/04 05:32:54;;;;;;;12.15;3.15;;;15.90;99.90;;;;;;5077369;28;20040;-88
2023/08/04 05:35:21;;;;;;;10.75;3.78;;;16.00;99.90;;;;;;5060404;28;20114;-89
2023/08/04 05:40:37;;;;;;;11.05;3.53;;;16.10;99.90;;;;;;5059911;28;20044;-87
2023/08/04 05:43:05;;;;;;;11.98;3.88;;;16.10;99.90;;;;;;5077751;28;20534;-88
2023/08/04 05:45:32;;;;;;;12.65;3.88;;;16.20;99.90;;;;;;5059507;28;20052;-89
2023/08/04 05:48:00;;;;;;;9.68;3.70;;;16.30;99.90;;;;;;5060460;28;20106;-88
2023/08/04 05:50:28;;;;;;;10.68;3.08;;;16.30;99.90;;;;;;5060113;28;20044;-89
2023/08/04 05:52:55;;;;;;;10.15;3.67;;;16.40;99.90;;;;;;5059631;28;20060;-88
2023/08/04 05:55:22;;;;;;;12.63;4.18;;;16.30;99.90;;;;;;5051018;28;20376;-88
2023/08/04 06:00:35;;;;;;;12.77;3.92;;;16.40;99.90;;;;;;5059660;28;20453;-87
2023/08/04 06:03:03;;;;;;;10.23;3.55;;;16.50;99.90;;;;;;5060497;28;20049;-88
2023/08/04 06:05:30;;;;;;;14.02;4.28;;;16.40;99.90;;;;;;5042130;28;20071;-86
2023/08/04 06:10:44;;;;;;;14.50;3.95;;;16.50;99.90;;;;;;5060078;28;20052;-89
2023/08/04 06:13:11;;;;;;;10.75;3.75;;;16.50;99.90;;;;;;5037974;28;20045;-87
2023/08/04 06:15:38;;;;;;;11.68;3.65;;;16.50;99.90;;;;;;5047731;28;20055;-88
2023/08/04 06:18:07;;;;;;;11.00;4.32;;;16.50;99.90;;;;;;5038507;28;20056;-89
2023/08/04 06:20:34;;;;;;;8.77;4.00;;;16.50;99.90;;;;;;5042699;28;20033;-88
2023/08/04 06:23:01;;;;;;;9.50;3.17;;;16.60;99.90;;;;;;5059796;28;20040;-88
2023/08/04 06:25:27;;;;;;;13.00;3.55;;;16.60;99.90;;;;;;5076273;28;20040;-88
2023/08/04 06:27:57;;;;;;;9.88;3.80;;;16.80;99.90;;;;;;5039173;28;20131;-88
2023/08/04 06:30:24;;;;;;;11.98;3.67;;;16.80;99.90;;;;;;5071136;28;20040;-88
2023/08/04 06:32:51;;;;;;;15.13;3.95;;;16.70;99.90;;;;;;5059611;28;20045;-87
2023/08/04 06:35:18;;;;;;;14.32;4.75;;;16.80;99.90;;;;;;5059703;28;20044;-87
2023/08/04 06:37:46;;;;;;;15.52;4.60;;;16.80;99.90;;;;;;5059547;28;20051;-87
2023/08/04 06:40:13;;;;;;;12.85;4.07;;;16.80;99.90;;;;;;5058982;28;20383;-88
2023/08/04 06:42:39;;;;;;;15.90;6.32;;;16.70;99.90;;;;;;5042527;28;20052;-86
2023/08/04 06:45:06;;;;;;;9.60;4.22;;;16.70;99.90;;;;;;5059152;28;20144;-87
2023/08/04 06:47:38;;;;;;;17.48;3.95;;;16.60;99.90;;;;;;5059308;28;20052;-88
2023/08/04 06:50:05;;;;;;;16.52;3.92;;;16.70;99.90;;;;;;5059707;28;20559;-88
2023/08/04 06:52:32;;;;;;;13.57;4.40;;;16.70;99.90;;;;;;5059503;28;20060;-87
2023/08/04 06:54:59;;;;;;;16.25;3.92;;;16.80;99.90;;;;;;5077363;28;20041;-87
2023/08/04 07:00:13;;;;;;;11.70;3.92;;;16.80;99.90;;;;;;5063254;28;20135;-87
2023/08/04 07:02:42;;;;;;;10.35;4.20;;;16.90;99.90;;;;;;5058928;28;20108;-87
2023/08/04 07:05:08;;;;;;;12.90;3.60;;;16.90;99.90;;;;;;5059190;28;20055;-86
2023/08/04 07:07:37;;;;;;;12.73;3.67;;;16.90;99.90;;;;;;5058462;28;20045;-85
2023/08/04 07:10:04;;;;;;;12.15;4.22;;;16.90;99.90;;;;;;5059282;28;20543;-88
2023/08/04 07:12:31;;;;;;;10.05;4.05;;;16.80;99.90;;;;;;5058183;28;20091;-87
2023/08/04 07:14:57;;;;;;;11.80;3.75;;;16.80;99.90;;;;;;5042213;28;20080;-87
2023/08/04 07:17:26;;;;;;;9.02;4.07;;;16.90;99.90;;;;;;5058374;28;20421;-88
2023/08/04 07:19:53;;;;;;;10.95;3.92;;;17.00;99.90;;;;;;5058140;28;20102;-88
2023/08/04 07:22:20;;;;;;;10.38;4.35;;;16.90;99.90;;;;;;5058397;28;20238;-87
2023/08/04 07:24:53;;;;;;;15.93;4.28;;;17.00;99.90;;;;;;5058894;28;20356;-87
2023/08/04 07:30:05;;;;;;;13.65;4.20;;;17.10;99.90;;;;;;5058294;28;20076;-86
2023/08/04 07:32:31;;;;;;;12.70;4.55;;;17.10;99.90;;;;;;5057619;28;20166;-87
2023/08/04 07:34:58;;;;;;;11.32;4.22;;;17.10;99.90;;;;;;5058937;28;20071;-87
2023/08/04 07:37:27;;;;;;;14.88;4.32;;;17.10;99.90;;;;;;5042135;28;20048;-87
2023/08/04 07:39:54;;;;;;;16.73;4.32;;;17.10;99.90;;;;;;5058293;28;20063;-86
2023/08/04 07:42:20;;;;;;;20.77;3.78;;;17.10;99.90;;;;;;5041752;28;20052;-86
2023/08/04 07:44:47;;;;;;;12.73;4.00;;;17.10;99.90;;;;;;5041527;28;20420;-85
2023/08/04 07:50:17;;;;;;;12.05;4.50;;;17.10;99.90;;;;;;5065874;28;20063;-87
2023/08/04 07:52:44;;;;;;;12.07;4.00;;;17.20;99.90;;;;;;5040194;28;20056;-86
2023/08/04 07:55:10;;;;;;;10.80;4.28;;;17.20;99.90;;;;;;5057787;28;20352;-86
2023/08/04 07:57:39;;;;;;;15.50;4.55;;;17.20;99.90;;;;;;5057623;28;20079;-87
2023/08/04 08:00:06;;;;;;;11.60;4.35;;;17.30;99.90;;;;;;5057356;28;20063;-87
2023/08/04 08:02:35;;;;;;;12.23;4.65;;;17.30;99.90;;;;;;5037806;28;20487;-88
2023/08/04 08:05:02;;;;;;;12.93;4.30;;;17.40;99.90;;;;;;5051749;28;20047;-86
2023/08/04 08:10:34;;;;;;;10.48;3.88;;;17.60;99.90;;;;;;5068530;28;20400;-88
2023/08/04 08:13:10;;;;;;;14.73;3.72;;;17.60;99.90;;;;;;5055837;28;20039;-88
2023/08/04 08:15:44;;;;;;;11.15;4.45;;;17.70;99.90;;;;;;5054928;28;20045;-86
2023/08/04 08:18:11;;;;;;;16.30;4.88;;;17.80;99.90;;;;;;5057599;28;20106;-86
2023/08/04 08:20:38;;;;;;;12.55;3.60;;;17.70;99.90;;;;;;5056537;28;20079;-86
2023/08/04 08:23:07;;;;;;;12.68;3.60;;;17.70;99.90;;;;;;5057491;28;20044;-89
2023/08/04 08:25:37;;;;;;;16.20;3.92;;;17.80;99.90;;;;;;5057383;28;20045;-87
2023/08/04 08:30:51;;;;;;;12.77;3.83;;;17.90;99.90;;;;;;5074392;28;20110;-86
2023/08/04 08:33:18;;;;;;;10.75;3.55;;;18.10;99.90;;;;;;5056732;28;20135;-86
2023/08/04 08:35:44;;;;;;;13.60;4.13;;;18.10;99.90;;;;;;5072804;28;20040;-85
2023/08/04 08:38:11;;;;;;;9.50;3.22;;;18.20;99.90;;;;;;5071403;28;20110;-87
2023/08/04 08:40:38;;;;;;;16.40;3.50;;;18.20;99.90;;;;;;5058938;28;20502;-86
2023/08/04 08:43:04;;;;;;;15.13;4.63;;;18.30;99.90;;;;;;5056605;28;20036;-85
2023/08/04 08:45:32;;;;;;;18.80;4.18;;;18.20;99.90;;;;;;5055724;28;20055;-84
2023/08/04 08:48:00;;;;;;;15.85;4.13;;;18.20;99.90;;;;;;5056923;28;20463;-84
2023/08/04 08:50:27;;;;;;;10.00;3.30;;;18.20;99.90;;;;;;5056487;28;20036;-86
2023/08/04 08:52:54;;;;;;;13.25;3.88;;;18.20;99.90;;;;;;5055597;28;20049;-85
2023/08/04 08:55:21;;;;;;;11.02;3.83;;;18.20;99.90;;;;;;5056259;28;20048;-86
2023/08/04 09:00:34;;;;;;;16.80;4.55;;;18.40;99.90;;;;;;5073245;28;20056;-85
2023/08/04 09:03:01;;;;;;;16.50;3.78;;;18.40;99.90;;;;;;5039289;28;20102;-85
2023/08/04 09:05:28;;;;;;;9.52;3.55;;;18.30;99.90;;;;;;5039061;28;20048;-86
2023/08/04 09:07:55;;;;;;;11.07;3.60;;;18.40;99.90;;;;;;5040320;28;20071;-86
2023/08/04 09:10:22;;;;;;;9.82;3.33;;;18.50;99.90;;;;;;5050925;28;20080;-86
2023/08/04 09:12:48;;;;;;;13.30;3.78;;;18.70;99.90;;;;;;5055898;28;20395;-85
2023/08/04 09:15:15;;;;;;;8.88;3.42;;;18.70;99.90;;;;;;5058391;28;20065;-85
2023/08/04 09:17:47;;;;;;;12.80;3.67;;;18.80;99.90;;;;;;5044852;28;20064;-86
2023/08/04 09:20:14;;;;;;;8.30;3.15;;;19.00;99.90;;;;;;5055849;28;20036;-85
2023/08/04 09:22:40;;;;;;;9.02;3.55;;;19.20;99.90;;;;;;5040091;28;20080;-88
2023/08/04 09:25:07;;;;;;;9.85;4.05;;;19.30;99.90;;;;;;5050282;28;20144;-87
2023/08/04 09:27:37;;;;;;;11.07;3.25;;;19.40;99.90;;;;;;5051598;28;20385;-86
2023/08/04 09:30:04;;;;;;;9.50;3.40;;;19.50;99.90;;;;;;5056697;28;20048;-89
2023/08/04 09:32:31;;;;;;;12.10;3.42;;;19.60;99.90;;;;;;5055860;28;20513;-88
2023/08/04 09:34:58;;;;;;;8.02;3.70;;;19.80;99.90;;;;;;5074499;28;20452;-89
2023/08/04 09:37:25;;;;;;;11.77;3.38;;;19.80;99.90;;;;;;5040213;28;20045;-88
2023/08/04 09:39:52;;;;;;;7.88;3.25;;;19.90;99.90;;;;;;5057508;28;20148;-89
2023/08/04 09:42:19;;;;;;;10.30;3.40;;;19.90;99.90;;;;;;5060600;28;20086;-88
2023/08/04 09:44:46;;;;;;;9.40;3.50;;;19.80;99.90;;;;;;5043817;28;20040;-88
2023/08/04 09:47:14;;;;;;;9.50;3.25;;;19.80;99.90;;;;;;5059689;28;20435;-89
2023/08/04 09:49:41;;;;;;;10.52;3.47;;;19.80;99.90;;;;;;5043289;28;20143;-89
2023/08/04 09:52:08;;;;;;;9.60;3.28;;;19.80;99.90;;;;;;5060097;28;20115;-87
2023/08/04 09:54:35;;;;;;;13.18;4.35;;;19.70;99.90;;;;;;5081811;28;20060;-86
2023/08/04 09:57:08;;;;;;;16.20;3.88;;;19.70;99.90;;;;;;5078080;28;20044;-87
2023/08/04 09:59:38;;;;;;;9.93;3.15;;;19.60;99.90;;;;;;5076761;28;20123;-88
2023/08/04 10:02:19;;;;;;;12.70;3.45;;;19.50;99.90;;;;;;5059733;28;20056;-87
2023/08/04 10:04:49;;;;;;;9.98;2.88;;;19.40;99.90;;;;;;5059699;28;20056;-88
2023/08/04 10:10:25;;;;;;;12.02;3.85;;;19.50;99.90;;;;;;5072485;28;20040;-87
2023/08/04 10:12:52;;;;;;;10.10;3.25;;;19.40;99.90;;;;;;5059757;28;20120;-91
2023/08/04 10:15:21;;;;;;;10.63;3.53;;;19.40;99.90;;;;;;5059577;28;20045;-86
2023/08/04 10:20:40;;;;;;;17.52;3.85;;;19.20;99.90;;;;;;5075993;28;20050;-85
2023/08/04 10:23:28;;;;;;;13.73;5.40;;;19.10;99.90;;;;;;5042006;28;20051;-86
2023/08/04 10:29:31;;;;;;;10.93;2.92;;;18.90;99.90;;;;;;5066924;28;20578;-87
2023/08/04 10:32:07;;;;;;;9.70;2.90;;;18.90;99.90;;;;;;5042583;28;20059;-85
2023/08/04 10:34:41;;;;;;;8.93;3.30;;;18.90;99.90;;;;;;5056643;28;20063;-85
2023/08/04 10:37:20;;;;;;;8.75;3.80;;;18.90;99.90;;;;;;5059368;28;20076;-86
2023/08/04 10:39:47;;;;;;;9.43;3.28;;;18.90;99.90;;;;;;5064149;28;20040;-85
2023/08/04 10:42:14;;;;;;;8.80;3.67;;;18.90;99.90;;;;;;5042276;28;20068;-84
2023/08/04 10:44:43;;;;;;;11.10;3.45;;;19.00;99.90;;;;;;5042493;28;20040;-83
2023/08/04 10:47:13;;;;;;;19.33;6.25;;;19.00;99.90;;;;;;5075640;28;20044;-82
2023/08/04 10:49:41;;;;;;;14.07;5.70;;;19.20;99.90;;;;;;5059306;28;20370;-84
2023/08/04 10:52:08;;;;;;;18.77;6.90;;;19.10;99.90;;;;;;5077407;28;20481;-87
2023/08/04 10:54:35;;;;;;;18.60;10.48;;;19.20;99.90;;;;;;5060073;28;20036;-84
2023/08/04 10:59:47;;;;;;;11.95;4.10;;;19.00;99.90;;;;;;5059383;28;20422;-88
2023/08/04 11:02:14;;;;;;;12.30;3.60;;;18.90;99.90;;;;;;5060039;28;20094;-87
2023/08/04 11:04:41;;;;;;;11.05;4.07;;;18.90;99.90;;;;;;5077321;28;20153;-88
2023/08/04 11:09:37;;;;;;;7.28;2.90;;;18.80;99.90;;;;;;5076270;28;20056;-86
2023/08/04 11:12:04;;;;;;;9.07;3.25;;;18.90;99.90;;;;;;5058532;28;20500;-88
2023/08/04 11:14:31;;;;;;;10.60;4.13;;;18.90;99.90;;;;;;5045367;28;20081;-85
2023/08/04 11:17:01;;;;;;;13.85;4.78;;;19.00;99.90;;;;;;5054755;28;20125;-86
2023/08/04 11:19:28;;;;;;;8.55;3.78;;;19.00;99.90;;;;;;5057861;28;20102;-83
2023/08/04 11:21:54;;;;;;;11.23;4.80;;;18.90;99.90;;;;;;5058327;28;20139;-85
2023/08/04 11:24:21;;;;;;;19.13;5.70;;;18.90;99.90;;;;;;5058343;28;20058;-86
2023/08/04 11:26:50;;;;;;;12.30;5.00;;;19.10;99.90;;;;;;5076069;28;20041;-85
2023/08/04 11:29:17;;;;;;;13.30;5.10;;;19.20;99.90;;;;;;5059327;28;20029;-85
2023/08/04 11:31:45;;;;;;;9.40;3.63;;;19.40;99.90;;;;;;5049538;28;20044;-84
2023/08/04 11:34:12;;;;;;;10.00;2.95;;;19.50;99.90;;;;;;5074926;28;20041;-86
2023/08/04 11:39:44;;;;;;;7.20;2.80;;;19.90;99.90;;;;;;5054805;28;20066;-84
2023/08/04 11:42:11;;;;;;;7.60;2.72;;;19.90;99.90;;;;;;5051673;28;20419;-87
2023/08/04 11:44:38;;;;;;;7.90;3.00;;;20.00;99.90;;;;;;5058076;28;20052;-85
2023/08/04 11:47:04;;;;;;;9.13;3.10;;;20.00;99.90;;;;;;5074692;28;20094;-86
2023/08/04 11:49:31;;;;;;;9.57;3.35;;;20.10;99.90;;;;;;5053892;28;20044;-86
2023/08/04 11:51:58;;;;;;;9.70;3.03;;;20.50;99.90;;;;;;5068492;28;20037;-86
2023/08/04 11:54:25;;;;;;;7.38;3.05;;;20.80;99.90;;;;;;5057862;28;20036;-86
2023/08/04 11:56:52;;;;;;;11.43;2.38;;;20.90;99.90;;;;;;5058794;28;20055;-85
2023/08/04 11:59:19;;;;;;;9.20;2.53;;;20.80;99.90;;;;;;5057520;28;20139;-85
2023/08/04 12:01:45;;;;;;;8.60;2.78;;;20.70;99.90;;;;;;5058201;28;20045;-86
2023/08/04 12:04:32;;;;;;;7.28;2.92;;;20.60;99.90;;;;;;5061074;28;20054;-86
2023/08/04 12:06:59;;;;;;;7.57;2.40;;;20.80;99.90;;;;;;5056965;28;20037;-87
2023/08/04 12:09:26;;;;;;;9.60;2.90;;;21.10;99.90;;;;;;5057563;28;20106;-86
2023/08/04 12:11:52;;;;;;;13.05;3.95;;;21.40;99.90;;;;;;5057737;28;20142;-86
2023/08/04 12:14:22;;;;;;;7.88;2.80;;;21.60;99.90;;;;;;5057144;28;20505;-86
2023/08/04 12:16:50;;;;;;;13.18;3.25;;;21.50;99.90;;;;;;5075501;28;20071;-86
2023/08/04 12:19:17;;;;;;;11.07;2.63;;;21.70;99.90;;;;;;5056807;28;20037;-86
2023/08/04 12:21:44;;;;;;;7.45;3.03;;;22.00;99.90;;;;;;5057437;28;20374;-87
2023/08/04 12:24:11;;;;;;;6.20;2.53;;;22.10;99.90;;;;;;5075049;28;20051;-86
2023/08/04 12:26:42;;;;;;;6.25;2.70;;;22.20;99.90;;;;;;5039883;28;20513;-86
2023/08/04 12:29:08;;;;;;;7.40;2.25;;;22.40;99.90;;;;;;5061747;28;20055;-88
2023/08/04 12:31:35;;;;;;;9.27;2.40;;;22.50;99.90;;;;;;5062120;28;20115;-88
2023/08/04 12:34:02;;;;;;;8.40;2.45;;;22.70;99.90;;;;;;5079377;28;20049;-87
2023/08/04 12:36:30;;;;;;;7.93;2.63;;;22.70;99.90;;;;;;5053564;28;20521;-87
2023/08/04 12:38:57;;;;;;;8.40;2.70;;;22.90;99.90;;;;;;5036497;28;20051;-87
2023/08/04 12:41:24;;;;;;;9.77;2.53;;;22.70;99.90;;;;;;5051249;28;20209;-86
2023/08/04 12:43:50;;;;;;;6.90;2.47;;;22.90;99.90;;;;;;5068442;28;20048;-84
2023/08/04 12:49:03;;;;;;;6.07;2.45;;;23.80;99.90;;;;;;5052842;28;20048;-85
2023/08/04 12:51:30;;;;;;;6.93;2.45;;;24.40;99.90;;;;;;5056957;28;20133;-86
2023/08/04 12:53:56;;;;;;;6.50;2.35;;;24.20;99.90;;;;;;5056164;28;20079;-88
2023/08/04 12:56:25;;;;;;;7.85;2.58;;;23.80;99.90;;;;;;5056395;28;20109;-87
2023/08/04 12:58:52;;;;;;;9.55;2.65;;;23.30;99.90;;;;;;5055856;28;20048;-89
2023/08/04 13:01:19;;;;;;;5.63;2.10;;;23.30;99.90;;;;;;5048634;28;20052;-87
2023/08/04 13:03:46;;;;;;;6.80;3.17;;;23.40;99.90;;;;;;5060906;28;20398;-84
2023/08/04 13:06:15;;;;;;;7.85;2.60;;;23.70;99.90;;;;;;5038114;28;20113;-88
2023/08/04 13:08:41;;;;;;;6.30;2.50;;;24.00;99.90;;;;;;5041090;28;20045;-87
2023/08/04 13:11:08;;;;;;;7.38;2.50;;;23.80;99.90;;;;;;5074831;28;20029;-87
2023/08/04 13:13:35;;;;;;;9.15;2.90;;;23.80;99.90;;;;;;5069690;28;20044;-86
2023/08/04 13:16:02;;;;;;;6.68;2.25;;;24.20;99.90;;;;;;5065509;28;20568;-86
2023/08/04 13:18:29;;;;;;;7.95;2.40;;;23.90;99.90;;;;;;5061130;28;20543;-86
2023/08/04 13:20:55;;;;;;;9.23;2.55;;;24.00;99.90;;;;;;5044030;28;20514;-86
2023/08/04 13:23:22;;;;;;;6.80;2.35;;;24.00;99.90;;;;;;5061020;28;20040;-86
2023/08/04 13:28:35;;;;;;;6.07;2.50;;;24.00;99.90;;;;;;5067263;28;20051;-86
2023/08/04 13:31:05;;;;;;;5.43;2.42;;;23.80;99.90;;;;;;5042543;28;20037;-89
2023/08/04 13:33:32;;;;;;;6.78;2.25;;;24.10;99.90;;;;;;5044465;28;20080;-88
2023/08/04 13:38:46;;;;;;;6.55;2.60;;;24.40;99.90;;;;;;5081327;28;20104;-88
2023/08/04 13:41:12;;;;;;;8.13;2.08;;;24.50;99.90;;;;;;5066481;28;20040;-90
2023/08/04 13:43:40;;;;;;;7.40;2.40;;;25.00;99.90;;;;;;5070003;28;20048;-86
2023/08/04 13:46:09;;;;;;;5.07;2.10;;;25.50;99.90;;;;;;5058806;28;20049;-85
2023/08/04 13:48:35;;;;;;;9.05;2.45;;;25.30;99.90;;;;;;5067205;28;20055;-83
2023/08/04 13:51:03;;;;;;;5.65;2.08;;;25.40;99.90;;;;;;5061479;28;20041;-85
2023/08/04 13:53:46;;;;;;;8.23;2.72;;;25.70;99.90;;;;;;5059440;28;20074;-85
2023/08/04 13:59:18;;;;;;;6.55;2.25;;;25.80;99.90;;;;;;5026802;28;20048;-84
2023/08/04 14:01:44;;;;;;;5.80;2.08;;;26.60;99.90;;;;;;5060164;28;20067;-84
2023/08/04 14:04:13;;;;;;;5.90;2.10;;;27.10;99.90;;;;;;5059827;28;20040;-84
2023/08/04 14:06:42;;;;;;;5.75;2.00;;;27.20;99.90;;;;;;5059260;28;20052;-83
2023/08/04 14:09:09;;;;;;;6.18;2.30;;;27.00;99.90;;;;;;5059687;28;20036;-84
2023/08/04 14:11:35;;;;;;;6.22;1.83;;;26.70;99.90;;;;;;5077401;28;20111;-84
2023/08/04 14:14:02;;;;;;;6.18;2.30;;;26.70;99.90;;;;;;5059320;28;20102;-86
2023/08/04 14:16:30;;;;;;;7.57;2.33;;;26.90;99.90;;;;;;5059903;28;20041;-87
2023/08/04 14:18:57;;;;;;;6.10;2.00;;;26.90;99.90;;;;;;5058952;28;20044;-86
2023/08/04 14:21:24;;;;;;;6.90;2.10;;;27.30;99.90;;;;;;5077209;28;20120;-86
2023/08/04 14:23:50;;;;;;;8.55;2.58;;;27.60;99.90;;;;;;5077088;28;20044;-84
2023/08/04 14:26:18;;;;;;;6.82;2.50;;;27.90;99.90;;;;;;5075215;28;20049;-84
2023/08/04 14:28:45;;;;;;;6.03;2.20;;;27.60;99.90;;;;;;5059108;28;20418;-82
2023/08/04 14:31:12;;;;;;;7.70;2.20;;;27.00;99.90;;;;;;5059744;28;20086;-82
2023/08/04 14:33:39;;;;;;;6.25;2.20;;;27.00;99.90;;;;;;5059689;28;20509;-88
2023/08/04 14:36:07;;;;;;;5.90;2.17;;;27.20;99.90;;;;;;5040214;28;20467;-88
2023/08/04 14:38:33;;;;;;;6.25;2.25;;;27.00;99.90;;;;;;5068757;28;20067;-86
2023/08/04 14:41:00;;;;;;;7.60;2.30;;;26.60;99.90;;;;;;5060207;28;20114;-81
2023/08/04 14:43:27;;;;;;;6.15;2.30;;;26.10;99.90;;;;;;5043892;28;20584;-83
2023/08/04 14:45:54;;;;;;;7.85;2.88;;;25.40;99.90;;;;;;5059758;28;20515;-86
2023/08/04 14:48:21;;;;;;;6.68;2.10;;;25.00;99.90;;;;;;5060262;28;20538;-87
2023/08/04 14:50:48;;;;;;;7.97;2.50;;;24.30;99.90;;;;;;5059782;28;20410;-87
2023/08/04 14:53:14;;;;;;;5.70;1.83;;;23.70;99.90;;;;;;5076707;28;20092;-85
2023/08/04 14:55:41;;;;;;;7.25;2.45;;;23.40;99.90;;;;;;5076759;28;20037;-85
2023/08/04 14:58:08;;;;;;;5.47;2.45;;;23.20;99.90;;;;;;5081048;28;20044;-84